createdAt,value
2022-08-22T00:01:10.839Z,26.30
2022-08-22T00:02:42.776Z,26.30
2022-08-22T00:02:52.802Z,26.20
2022-08-22T00:02:54.176Z,26.30
2022-08-22T00:06:28.125Z,26.30
2022-08-22T00:11:47.581Z,26.20
2022-08-22T00:17:02.045Z,26.20
2022-08-22T00:22:18.727Z,26.20
2022-08-22T00:27:33.969Z,26.30
2022-08-22T00:32:46.910Z,26.30
2022-08-22T00:38:04.561Z,26.20
2022-08-22T00:44:19.179Z,26.30
2022-08-22T00:49:51.174Z,26.20
2022-08-22T00:55:41.778Z,26.20
2022-08-22T01:00:54.109Z,26.20
2022-08-22T01:06:17.727Z,26.20
2022-08-22T01:11:53.154Z,26.20
2022-08-22T01:17:48.837Z,26.20
2022-08-22T01:23:53.408Z,26.30
2022-08-22T01:29:55.506Z,26.20
2022-08-22T01:35:28.898Z,26.20
2022-08-22T01:41:42.541Z,26.20
2022-08-22T01:46:58.901Z,26.20
2022-08-22T01:52:13.886Z,26.20
2022-08-22T01:57:19.383Z,26.20
2022-08-22T02:02:47.620Z,26.20
2022-08-22T02:08:02.307Z,26.20
2022-08-22T02:13:27.335Z,26.20
2022-08-22T02:18:52.019Z,26.20
2022-08-22T02:24:04.868Z,26.20
2022-08-22T02:29:14.969Z,26.20
2022-08-22T02:34:39.723Z,26.20
2022-08-22T02:39:54.943Z,26.20
2022-08-22T02:45:17.059Z,26.20
2022-08-22T02:50:38.018Z,26.20
2022-08-22T02:55:54.700Z,26.20
2022-08-22T03:01:40.754Z,26.10
2022-08-22T03:07:01.200Z,26.20
2022-08-22T03:12:20.248Z,26.20
2022-08-22T03:17:34.870Z,26.10
2022-08-22T03:22:47.673Z,26.10
2022-08-22T03:28:00.578Z,26.10
2022-08-22T03:33:19.872Z,26.10
2022-08-22T03:38:30.242Z,26.10
2022-08-22T03:44:12.114Z,26.10
2022-08-22T03:50:32.801Z,26.10
2022-08-22T03:56:17.979Z,26.10
2022-08-22T04:02:03.239Z,26.10
2022-08-22T04:08:15.031Z,26.10
2022-08-22T04:19:58.597Z,26.10
2022-08-22T04:25:08.340Z,26.10
2022-08-22T04:30:25.709Z,26.10
2022-08-22T04:35:34.329Z,26.10
2022-08-22T04:40:45.549Z,26.10
2022-08-22T04:45:56.822Z,26.10
2022-08-22T04:51:09.767Z,26.10
2022-08-22T04:56:25.079Z,26.10
2022-08-22T05:01:47.202Z,26.10
2022-08-22T05:06:58.608Z,26.10
2022-08-22T05:12:11.978Z,26.10
2022-08-22T05:17:22.880Z,26.10
2022-08-22T05:22:37.977Z,26.00
2022-08-22T05:27:46.774Z,26.10
2022-08-22T05:32:57.280Z,26.00
2022-08-22T05:38:04.810Z,26.10
2022-08-22T05:43:13.776Z,26.10
2022-08-22T05:48:22.812Z,26.00
2022-08-22T05:53:37.477Z,26.00
2022-08-22T05:58:52.961Z,26.00
2022-08-22T06:04:17.402Z,26.00
2022-08-22T06:09:40.426Z,26.10
2022-08-22T06:14:51.103Z,26.00
2022-08-22T06:19:56.635Z,26.00
2022-08-22T06:25:10.289Z,26.00
2022-08-22T06:30:18.066Z,26.00
2022-08-22T06:35:27.903Z,26.00
2022-08-22T06:40:33.115Z,26.00
2022-08-22T06:45:37.283Z,26.10
2022-08-22T06:50:45.952Z,26.10
2022-08-22T06:55:55.829Z,26.00
2022-08-22T07:01:11.521Z,26.00
2022-08-22T07:06:20.970Z,26.00
2022-08-22T07:11:31.677Z,26.10
2022-08-22T07:16:42.966Z,26.10
2022-08-22T07:21:49.586Z,26.10
2022-08-22T07:27:12.664Z,26.00
2022-08-22T07:32:29.103Z,26.00
2022-08-22T07:37:53.123Z,26.00
2022-08-22T07:43:08.759Z,26.00
2022-08-22T07:48:26.342Z,26.00
2022-08-22T07:53:41.070Z,26.00
2022-08-22T07:58:53.280Z,26.00
2022-08-22T08:04:02.019Z,26.00
2022-08-22T08:09:06.714Z,26.00
2022-08-22T08:14:16.790Z,26.00
2022-08-22T08:19:22.615Z,26.00
2022-08-22T08:24:40.640Z,26.00
2022-08-22T08:29:56.493Z,26.00
2022-08-22T08:35:01.230Z,26.00
2022-08-22T08:40:19.635Z,26.00
2022-08-22T08:45:48.228Z,26.00
2022-08-22T08:51:21.766Z,26.10
2022-08-22T08:56:38.954Z,26.10
2022-08-22T09:02:23.736Z,26.10
2022-08-22T09:08:39.353Z,26.10
2022-08-22T09:14:00.614Z,26.00
2022-08-22T09:43:07.325Z,26.10
2022-08-22T09:48:34.660Z,26.10
2022-08-22T09:54:11.103Z,26.10
2022-08-22T09:59:28.729Z,26.10
2022-08-22T10:04:48.007Z,26.10
2022-08-22T10:10:07.611Z,26.10
2022-08-22T10:15:25.009Z,26.10
2022-08-22T10:20:35.530Z,26.10
2022-08-22T10:25:44.902Z,26.10
2022-08-22T10:31:20.958Z,26.10
2022-08-22T10:36:39.810Z,26.10
2022-08-22T10:42:19.606Z,26.10
2022-08-22T10:47:42.735Z,26.10
2022-08-22T10:52:50.490Z,26.10
2022-08-22T10:58:09.039Z,26.20
2022-08-22T11:03:23.549Z,26.10
2022-08-22T11:08:59.809Z,26.10
2022-08-22T11:14:56.597Z,26.20
2022-08-22T11:20:21.328Z,26.20
2022-08-22T11:25:44.871Z,26.20
2022-08-22T11:31:11.085Z,26.20
2022-08-22T11:36:36.004Z,26.20
2022-08-22T11:41:52.558Z,26.20
2022-08-22T11:46:58.403Z,26.20
2022-08-22T11:52:25.464Z,26.20
2022-08-22T11:57:37.393Z,26.20
2022-08-22T12:03:23.300Z,26.20
2022-08-22T12:09:25.091Z,26.20
2022-08-22T12:14:39.509Z,26.20
2022-08-22T12:20:16.364Z,26.20
2022-08-22T12:25:49.734Z,26.20
2022-08-22T12:31:09.845Z,26.30
2022-08-22T12:36:46.279Z,26.20
2022-08-22T12:42:23.219Z,26.20
2022-08-22T12:47:49.200Z,26.30
2022-08-22T12:53:26.405Z,26.30
2022-08-22T12:59:15.122Z,26.30
2022-08-22T13:04:33.003Z,26.30
2022-08-22T13:09:43.382Z,26.30
2022-08-22T13:14:54.853Z,26.30
2022-08-22T13:20:10.903Z,26.30
2022-08-22T13:25:26.931Z,26.30
2022-08-22T13:30:39.200Z,26.30
2022-08-22T13:35:51.883Z,26.40
2022-08-22T13:40:59.464Z,26.40
2022-08-22T13:46:10.993Z,26.50
2022-08-22T13:51:25.599Z,26.40
2022-08-22T13:56:50.561Z,26.50
2022-08-22T14:02:01.832Z,26.40
2022-08-22T14:07:33.414Z,26.40
2022-08-22T14:13:19.386Z,26.40
2022-08-22T14:18:35.914Z,26.40
2022-08-22T14:23:39.725Z,26.40
2022-08-22T14:28:45.252Z,26.40
2022-08-22T14:33:55.697Z,26.40
2022-08-22T14:39:11.264Z,26.40
2022-08-22T14:44:24.190Z,26.50
2022-08-22T14:49:38.233Z,26.50
2022-08-22T14:54:42.679Z,26.50
2022-08-22T14:59:52.163Z,26.50
2022-08-22T15:05:02.150Z,26.50
2022-08-22T15:10:22.194Z,26.60
2022-08-22T15:15:49.458Z,26.60
2022-08-22T15:21:10.084Z,26.60
2022-08-22T15:26:26.066Z,26.50
2022-08-22T15:31:32.503Z,26.50
2022-08-22T15:36:43.705Z,26.50
2022-08-22T15:41:48.911Z,26.50
2022-08-22T15:47:23.723Z,26.50
2022-08-22T15:52:33.698Z,26.50
2022-08-22T15:57:40.374Z,26.50
2022-08-22T16:03:00.603Z,26.60
2022-08-22T16:08:12.181Z,26.60
2022-08-22T16:13:42.747Z,26.60
2022-08-22T16:19:22.125Z,26.60
2022-08-22T16:25:02.366Z,26.60
2022-08-22T16:30:16.974Z,26.60
2022-08-22T16:36:42.765Z,26.60
2022-08-22T16:41:49.370Z,26.60
2022-08-22T16:46:56.317Z,26.60
2022-08-22T16:52:55.743Z,26.70
2022-08-22T16:58:12.093Z,26.70
2022-08-22T17:03:27.694Z,26.70
2022-08-22T17:08:53.901Z,26.70
2022-08-22T17:14:36.127Z,26.70
2022-08-22T17:20:15.713Z,26.60
2022-08-22T17:25:31.828Z,26.70
2022-08-22T17:30:51.081Z,26.70
2022-08-22T17:36:26.271Z,26.70
2022-08-22T17:41:39.550Z,26.80
2022-08-22T17:46:54.851Z,26.80
2022-08-22T17:52:13.477Z,26.80
2022-08-22T17:57:30.682Z,26.90
2022-08-22T18:02:44.006Z,26.90
2022-08-22T18:07:59.281Z,26.90
2022-08-22T18:13:11.462Z,26.90
2022-08-22T18:18:31.264Z,26.90
2022-08-22T18:23:42.802Z,26.90
2022-08-22T18:28:56.433Z,26.90
2022-08-22T18:34:11.093Z,26.90
2022-08-22T18:39:23.466Z,26.90
2022-08-22T18:44:31.814Z,26.90
2022-08-22T18:49:54.021Z,26.90
2022-08-22T18:55:29.810Z,26.90
2022-08-22T19:01:05.551Z,26.90
2022-08-22T19:06:58.941Z,26.90
2022-08-22T19:12:27.251Z,26.90
2022-08-22T19:18:05.851Z,26.90
2022-08-22T19:23:49.551Z,26.90
2022-08-22T19:28:59.378Z,26.80
2022-08-22T19:34:40.826Z,26.80
2022-08-22T19:39:55.780Z,26.80
2022-08-22T19:45:20.065Z,26.80
2022-08-22T19:50:34.995Z,26.80
2022-08-22T19:56:03.544Z,26.80
2022-08-22T20:01:37.463Z,26.80
2022-08-22T20:06:56.198Z,26.80
2022-08-22T20:12:20.128Z,26.70
2022-08-22T20:17:43.749Z,26.70
2022-08-22T20:22:54.252Z,26.70
2022-08-22T20:28:08.608Z,26.70
2022-08-22T20:33:18.579Z,26.70
2022-08-22T20:38:27.626Z,26.60
2022-08-22T20:43:40.084Z,26.60
2022-08-22T20:48:49.100Z,26.60
2022-08-22T20:53:58.343Z,26.60
2022-08-22T20:59:36.085Z,26.60
2022-08-22T21:04:50.480Z,26.60
2022-08-22T21:10:22.878Z,26.60
2022-08-22T21:15:35.108Z,26.60
2022-08-22T21:20:40.260Z,26.60
2022-08-22T21:26:00.278Z,26.60
2022-08-22T21:31:16.403Z,26.50
2022-08-22T21:36:25.717Z,26.60
2022-08-22T21:41:35.739Z,26.60
2022-08-22T21:46:40.837Z,26.60
2022-08-22T21:51:48.248Z,26.60
2022-08-22T21:56:54.006Z,26.60
2022-08-22T22:02:36.648Z,26.60
2022-08-22T22:07:43.805Z,26.60
2022-08-22T22:12:51.912Z,26.60
2022-08-22T22:17:57.707Z,26.60
2022-08-22T22:23:02.425Z,26.60
2022-08-22T22:28:12.855Z,26.60
2022-08-22T22:33:18.998Z,26.60
2022-08-22T22:38:24.409Z,26.60
2022-08-22T22:43:28.512Z,26.60
2022-08-22T22:48:34.097Z,26.60
2022-08-22T22:53:40.374Z,26.60
2022-08-22T22:58:47.517Z,26.60
2022-08-22T23:03:57.986Z,26.60
2022-08-22T23:09:01.649Z,26.60
2022-08-22T23:14:05.464Z,26.60
2022-08-22T23:19:13.286Z,26.60
2022-08-22T23:24:18.508Z,26.60
2022-08-22T23:29:22.680Z,26.50
2022-08-22T23:34:33.984Z,26.50
2022-08-22T23:39:39.372Z,26.50
2022-08-22T23:44:45.928Z,26.50
2022-08-22T23:49:51.099Z,26.50
2022-08-22T23:54:55.759Z,26.50
2022-08-22T23:59:59.903Z,26.50
